Архив погоды в Тимирязевском

Метеограмма Тимирязевский
Понедельник, 24 Июня
Время местн. Темп Ветер Видим Явления Облачность нижн/средн/верх Атм. давл. Влжн Точка росы ВНГО R Сост. почвы Tg s
Напр Скр Прв ур.ст ур.м изм
22:00 +17° Ю 4 11 20 км - облачно с прояснениями 757 760 +0.5 89% +15.1° 600 м - - - -
19:00 +21.1° Ю 5 - 20 км - облачно 756 759 -0.2 69% +15.1° - 0 - - -
16:00 +22.6° Ю,Ю-З 5 10 20 км - облачно с прояснениями 757 760 -0.2 67% +16.2° 1.5 км - - - -
13:00 +22.3° Ю 4 - 20 км - облачно 757 760 -0.6 69% +16.4° 1.5 км - - - -
10:00 +17.1° Ю 2 - 20 км - облачно 757 761 +0.5 91% +15.6° 600 м - - - -
07:00 +15.3° Ю 3 - 4 км дымка облачно 757 760 +0.9 99% +15.1° 600 м 0 Сухая (без трещин) +16° -
04:00 +15.3° Ю 3 - 50 км - переменная облачность 756 759 +0.4 99% +15.2° 600 м - - - -
01:00 +16.4° Ю 2 - 50 км - ясно 756 759 +0.8 96% +15.7° более 2.5 км - - - -
Воскресенье, 23 Июня
Время местн. Темп Ветер Видим Явления Облачность нижн/средн/верх Атм. давл. Влжн Точка росы ВНГО R Сост. почвы Tg s
Напр Скр Прв ур.ст ур.м изм
22:00 +20° С,С-В 2 - 50 км - ясно 755 758 +1.1 71% +14.5° более 2.5 км - - - -
19:00 +24.4° С 3 - 50 км - ясно 754 757 +0.1 52% +13.9° более 2.5 км 0 - - -
16:00 +25.2° С-В 3 - 50 км - незначительная облачность 753 756 -0.9 48% +13.4° 1 км - - - -
13:00 +23.1° С,С-З 2 - 20 км - облачно с прояснениями 754 757 -0.7 65% +16.2° 1.5 км - - - -
10:00 +16.7° З,С-З 1 - 4 км дымка облачно 755 758 +0.4 91% +15.2° 1 км - - - -
07:00 +14.1° Ю 1 - 4 км дымка облачно 755 758 +0.3 99% +14° 600 м 0 Сухая (без трещин) - -
04:00 +14.2° Ю 1 - 4 км дымка облачно 754 757 -0.3 99% +14° 600 м - - - -
01:00 +14.4° Ю 3 - более 50 км - облачно с прояснениями 755 758 +0.1 96% +13.7° 1 км - - - -
Суббота, 22 Июня
Время местн. Темп Ветер Видим Явления Облачность нижн/средн/верх Атм. давл. Влжн Точка росы ВНГО R Сост. почвы Tg s
Напр Скр Прв ур.ст ур.м изм
22:00 +15.1° Ю 3 - 50 км - преимущественно облачно 755 758 +1.6 93% +14° 1 км - - - -
19:00 +22.5° С 3 - 50 км - переменная облачность 753 756 -0.1 58% +13.8° 1 км 0 - - -
16:00 +24.3° С,С-В 5 - 50 км - переменная облачность 753 756 -0.9 50% +13.3° 1.5 км - - - -
13:00 +22.4° С,С-З 2 - 50 км - облачно с прояснениями 754 757 -0.6 70% +16.6° 1.5 км - - - -
10:00 +18.3° З,С-З 1 - 4 км дымка {туман} облачно с прояснениями 755 758 -0.2 84% +15.5° 600 м - - - -
07:00 +13.1° Ю 2 - 0.5 км туман усиливается неба не видно 755 758 +0.7 99% +13° - 0 Влажная (без луж) - -
04:00 +13.5° Ю 1 - более 50 км - переменная облачность 754 757 +0.1 99% +13.4° 1.5 км - - - -
01:00 +14.7° Ю 1 - 50 км - облачно с прояснениями 754 757 +0.2 99% +14.6° 1.5 км - - - -
Пятница, 21 Июня
Время местн. Темп Ветер Видим Явления Облачность нижн/средн/верх Атм. давл. Влжн Точка росы ВНГО R Сост. почвы Tg s
Напр Скр Прв ур.ст ур.м изм
22:00 +16.8° С-В 1 - 50 км - переменная облачность 754 757 +0.8 86% +14.5° 1.5 км - - - -
19:00 +21.3° С,С-В 4 - более 50 км - переменная облачность 753 756 -0.1 59% +12.9° 1 км 0 - - -